Buoy 47574

sailwx.info

Track history (hours):
 
Tides and Currents Weather Stations Pressure Air Temp Water Temp Dewpoint Dewpoint Depression Visibility Wind Speed Wind Dir Waves Ship Positions

Drifting buoy 47574

Last reported at 2017-Sep-25 12:00 UTC. Time now 2017-Sep-25 13:37 UTC.
Position N 39°56' W 015°13'.

Barometer 1024.2 mb
Water temperature 21.6 ° C

Date/timePositionNaut miles runAvg speedWind from/ knotsBaromVisibWave heightAir tempDewpointWater temp
2017-Sep-25 12:00N 39°56' W 015°13'0 0.0 1024.2 21.6
2017-Sep-25 11:00N 39°56' W 015°13'0 0.0 1024.6 21.6
2017-Sep-25 10:00N 39°56' W 015°13'0 0.0 1024.7 21.5
2017-Sep-25 09:00N 39°56' W 015°13'0 0.5 1024.5 21.5
2017-Sep-25 08:00N 39°56' W 015°14'1 0.6 1024.1 21.5
2017-Sep-25 07:00N 39°57' W 015°14'0 0.5 1023.7 21.5
2017-Sep-25 06:00N 39°57' W 015°14'0 0.5 1023.2 21.5
2017-Sep-25 05:00N 39°57' W 015°15'1 0.6 1023.0 21.5
2017-Sep-25 04:00N 39°56' W 015°15'0 0.5 1023.0 21.5
2017-Sep-25 03:00N 39°56' W 015°16'1 0.8 1023.0 21.5
2017-Sep-25 02:00N 39°56' W 015°16'1 0.6 1023.3 21.5
2017-Sep-25 01:00N 39°55' W 015°16'0 0.5 1023.5 21.5
2017-Sep-25 00:00N 39°55' W 015°17'0 0.0 1023.6 21.5
2017-Sep-24 23:00N 39°55' W 015°17'0 0.0 1023.8 21.6
2017-Sep-24 22:00N 39°55' W 015°17'1 0.6 1023.8 21.6
2017-Sep-24 21:00N 39°56' W 015°17'0 0.5 1023.4 21.6
2017-Sep-24 20:00N 39°56' W 015°17'0 0.0 1022.8 21.6
2017-Sep-24 19:00N 39°56' W 015°17'0 0.0 1022.3 21.6
2017-Sep-24 18:00N 39°56' W 015°17'0 0.5 1022.0 21.6
2017-Sep-24 17:00N 39°56' W 015°18'0 0.0 1021.9 21.7
2017-Sep-24 16:00N 39°56' W 015°18'1 0.6 1021.9 21.7
2017-Sep-24 15:00N 39°55' W 015°18'0 0.5 1021.9 21.6
2017-Sep-24 14:00N 39°55' W 015°19'0 0.0 1021.7 21.6
2017-Sep-24 13:00N 39°55' W 015°19'0 0.0 1021.6 21.5
2017-Sep-24 12:00N 39°55' W 015°19'1 0.6 1021.5 21.5
2017-Sep-24 11:00N 39°56' W 015°19'0 0.5 1021.3 21.5
2017-Sep-24 10:00N 39°56' W 015°19'0 0.0 1020.9 21.5
2017-Sep-24 09:00N 39°56' W 015°19'1 0.8 1020.3 21.5
2017-Sep-24 08:00N 39°56' W 015°20'0 0.5 1019.7 21.5
2017-Sep-24 07:00N 39°56' W 015°20'0 0.5 1019.3 21.4
2017-Sep-24 06:00N 39°56' W 015°21'0 0.5 1019.0 21.5
2017-Sep-24 05:00N 39°56' W 015°22'1 0.8 1018.5 21.5
2017-Sep-24 04:00N 39°56' W 015°22'1 0.6 1018.6 21.5
2017-Sep-24 03:00N 39°55' W 015°22'0 0.5 1018.7 21.5
2017-Sep-24 02:00N 39°55' W 015°23'0 0.0 1018.9 21.5
2017-Sep-24 01:00N 39°55' W 015°23'1 0.6 1019.2 21.5
2017-Sep-24 00:00N 39°55' W 015°23'0 0.0 1019.4 21.5
2017-Sep-23 23:00N 39°55' W 015°23'0 0.0 1019.6 21.5
2017-Sep-23 22:00N 39°55' W 015°23'0 0.0 1019.4 21.5
2017-Sep-23 21:00N 39°55' W 015°23'1 0.6 1018.9 21.4
2017-Sep-23 20:00N 39°55' W 015°23'0 0.0 1018.5 21.5
2017-Sep-23 19:00N 39°55' W 015°23'0 0.0 1017.7 21.5
2017-Sep-23 18:00N 39°55' W 015°23'0 0.0 1017.2 21.5
2017-Sep-23 17:00N 39°55' W 015°23'0 0.5 1016.8 21.5
2017-Sep-23 16:00N 39°55' W 015°23'0 0.0 1016.7 21.5
2017-Sep-23 15:00N 39°55' W 015°23'0 0.5 1017.0 21.5
2017-Sep-23 14:00N 39°55' W 015°24'0 0.5 1017.2 21.5
2017-Sep-23 13:00N 39°55' W 015°25'0 0.0 1017.5 21.5
2017-Sep-23 12:00N 39°55' W 015°25'1 0.9 1017.9 21.5
2017-Sep-23 11:00N 39°55' W 015°26'1 0.8 1018.1 21.5
2017-Sep-23 10:00N 39°55' W 015°26'0 0.5 1017.8 21.5
2017-Sep-23 09:00N 39°55' W 015°27'0 0.5 1017.6 21.5
2017-Sep-23 08:00N 39°55' W 015°28'1 0.8 1017.6 21.5
2017-Sep-23 07:00N 39°54' W 015°28'0 0.0 1016.9 21.5
2017-Sep-23 06:00N 39°54' W 015°28'1 0.8 1017.0 21.5
2017-Sep-23 05:00N 39°53' W 015°29'0 0.5 1017.3 21.5
2017-Sep-23 04:00N 39°53' W 015°29'0 0.0 1017.8 21.6
2017-Sep-23 03:00N 39°53' W 015°29'1 0.8 1018.2 21.6
2017-Sep-23 02:00N 39°53' W 015°30'0 0.0 1018.7 21.6
2017-Sep-23 01:00N 39°53' W 015°30'0 0.5 1018.8 21.6
2017-Sep-23 00:00N 39°53' W 015°31'0 0.0 1019.5 21.6
2017-Sep-22 23:00N 39°53' W 015°31'0 0.5 1020.5 21.6
2017-Sep-22 22:00N 39°53' W 015°31'0 0.0 1021.2 21.6
2017-Sep-22 21:00N 39°53' W 015°31'0 0.5 1021.4 21.7
2017-Sep-22 20:00N 39°53' W 015°32'0 0.0 1021.5 21.7
2017-Sep-22 19:00N 39°53' W 015°32'0 0.5 1021.2 21.8
2017-Sep-22 18:00N 39°53' W 015°32'0 0.0 1021.3 21.9
2017-Sep-22 17:00N 39°53' W 015°32'1 0.8 1021.6 22.0
2017-Sep-22 16:00N 39°52' W 015°33'0 0.0 1021.9 22.2
2017-Sep-22 15:00N 39°52' W 015°33'0 0.0 1022.6 22.3
2017-Sep-22 14:00N 39°52' W 015°33'0 0.0 1022.9 22.4
2017-Sep-22 13:00N 39°52' W 015°33'0 0.5 1023.4 22.3
2017-Sep-22 12:00N 39°52' W 015°34'0 0.0 1023.9 22.0
2017-Sep-22 11:00N 39°52' W 015°34'0 0.0 1024.3 21.8
2017-Sep-22 10:00N 39°52' W 015°34'0 0.0 1024.6 21.6
2017-Sep-22 09:00N 39°52' W 015°34'1 0.6 1024.3 21.6
2017-Sep-22 08:00N 39°53' W 015°34'0 0.0 1024.0 21.6
2017-Sep-22 07:00N 39°53' W 015°34'0 0.0 1023.8 21.6
2017-Sep-22 06:00N 39°53' W 015°34'0 0.5 1023.9 21.6
2017-Sep-22 05:00N 39°53' W 015°34'0 0.0 1023.7 21.6
2017-Sep-22 04:00N 39°53' W 015°34'1 0.6 1023.8 21.6
2017-Sep-22 03:00N 39°53' W 015°34'0 0.0 1024.4 21.6
2017-Sep-22 02:00N 39°53' W 015°34'0 0.5 1024.8 21.6
2017-Sep-22 01:00N 39°53' W 015°35'0 0.0 1025.1 21.6
2017-Sep-22 00:00N 39°53' W 015°35'1 0.6 1025.4 21.6
2017-Sep-21 23:00N 39°54' W 015°35'0 0.0 1025.5 21.6
2017-Sep-21 22:00N 39°54' W 015°35'0 0.5 1025.5 21.6
2017-Sep-21 21:00N 39°54' W 015°35'0 0.5 1025.7 21.7
2017-Sep-21 20:00N 39°54' W 015°35'0 0.0 1025.1 21.7
2017-Sep-21 19:00N 39°54' W 015°35'1 0.6 1024.8 21.7
2017-Sep-21 18:00N 39°55' W 015°35'0 0.0 1024.5 21.7
2017-Sep-21 17:00N 39°55' W 015°35'0 0.5 1024.3 21.7
2017-Sep-21 16:00N 39°55' W 015°34'1 0.6 1024.2 21.7
2017-Sep-21 15:00N 39°55' W 015°34'0 0.0 1024.0 21.7
2017-Sep-21 14:00N 39°55' W 015°34'1 0.6 1024.0 21.7
2017-Sep-21 13:00N 39°56' W 015°34'0 0.0 1024.4 21.7
2017-Sep-21 12:00N 39°56' W 015°34'0 0.5 1024.4 21.7
2017-Sep-21 11:00N 39°56' W 015°35'1 0.6 1024.4 21.7
2017-Sep-21 10:00N 39°56' W 015°35'0 0.0 1024.2 21.7
2017-Sep-21 09:00N 39°56' W 015°35'0 0.0 1023.7 21.6
2017-Sep-21 08:00N 39°56' W 015°35'0 0.0 1023.1 21.6
2017-Sep-21 07:00N 39°56' W 015°35'0 0.0 1022.4 21.7
2017-Sep-21 06:00N 39°56' W 015°35'0 0.0 1021.6 21.7
2017-Sep-21 05:00N 39°56' W 015°35'0 0.0 1021.0 21.7
2017-Sep-21 04:00N 39°56' W 015°35'1 0.8 1020.8 21.7
2017-Sep-21 03:00N 39°56' W 015°34'1 0.8 1020.9 21.7
2017-Sep-21 02:00N 39°56' W 015°34'0 0.5
2017-Sep-21 01:00N 39°56' W 015°33'0 0.0
2017-Sep-21 00:00N 39°56' W 015°33'1 0.6 1020.8 21.7
2017-Sep-20 23:00N 39°57' W 015°33'1 0.6 1020.6 21.7
2017-Sep-20 22:00N 39°58' W 015°33'0 0.0 1020.4 21.8
2017-Sep-20 21:00N 39°58' W 015°33'0 0.0 1020.0 21.8
2017-Sep-20 20:00N 39°58' W 015°33'1 0.6 1019.5 21.8
2017-Sep-20 19:00N 39°58' W 015°33'0 0.5 1019.4 21.8
2017-Sep-20 18:00N 39°58' W 015°34'0 0.0 1019.6 21.8
2017-Sep-20 17:00N 39°58' W 015°34'0 0.0 1019.6 21.9
2017-Sep-20 16:00N 39°58' W 015°34'0 0.5 1019.7 22.0
2017-Sep-20 15:00N 39°58' W 015°34'0 0.0 1019.9 22.0
2017-Sep-20 14:00N 39°58' W 015°34'0 0.5 1020.3 21.9
2017-Sep-20 13:00N 39°58' W 015°35'1 0.8 1020.9 21.9
2017-Sep-20 12:00N 39°58' W 015°35'0 0.0 1021.4 21.8
2017-Sep-20 11:00N 39°58' W 015°35'0 0.5 1021.9 21.8
2017-Sep-20 10:00N 39°58' W 015°36'0 0.0 1022.1 21.8
2017-Sep-20 09:00N 39°58' W 015°36'1 0.6 1022.2 21.8
2017-Sep-20 08:00N 39°57' W 015°36'0 0.0 1022.2 21.8
2017-Sep-20 07:00N 39°57' W 015°36'1 0.8 1022.1 21.8
2017-Sep-20 06:00N 39°56' W 015°37'0 0.0 1022.0 21.8
2017-Sep-20 05:00N 39°56' W 015°37'0 0.0 1022.0 21.8
2017-Sep-20 04:00N 39°56' W 015°37'1 0.6 1022.4 21.8
2017-Sep-20 03:00N 39°56' W 015°37'0 0.0 1022.6 21.9
2017-Sep-20 02:00N 39°56' W 015°37'0 0.0 1023.2 21.9
2017-Sep-20 01:00N 39°56' W 015°37'0 0.0 1023.7 21.9
2017-Sep-20 00:00N 39°56' W 015°37'1 0.6 1024.1 21.9
2017-Sep-19 23:00N 39°56' W 015°37'0 0.5 1024.8 22.0
2017-Sep-19 22:00N 39°56' W 015°37'0 0.0 1025.1 22.0
2017-Sep-19 21:00N 39°56' W 015°37'0 0.0 1025.3 22.1
2017-Sep-19 20:00N 39°56' W 015°37'0 0.5 1025.1 22.0
2017-Sep-19 19:00N 39°56' W 015°38'1 0.6 1024.8 22.1
2017-Sep-19 18:00N 39°56' W 015°38'0 0.5 1024.6 22.2
2017-Sep-19 17:00N 39°56' W 015°38'0 0.0 1024.7 22.3
2017-Sep-19 16:00N 39°56' W 015°38'1 0.6 1024.8 22.3
2017-Sep-19 15:00N 39°55' W 015°38'0 0.5 1025.1 22.3
2017-Sep-19 14:00N 39°55' W 015°38'0 0.0 1025.5 22.1
2017-Sep-19 13:00N 39°55' W 015°38'0 0.0 1025.8 22.0
2017-Sep-19 12:00N 39°55' W 015°38'0 0.0 1026.2 21.9
2017-Sep-19 11:00N 39°55' W 015°38'0 0.0 1026.6 21.9
2017-Sep-19 10:00N 39°55' W 015°38'0 0.5 1026.9 21.8
2017-Sep-19 09:00N 39°55' W 015°38'0 0.0 1026.4 21.7
2017-Sep-19 08:00N 39°55' W 015°38'0 0.0 1026.3 21.7
2017-Sep-19 07:00N 39°55' W 015°38'0 0.0 1025.9 21.7
2017-Sep-19 06:00N 39°55' W 015°38'1 0.6 1025.7 21.7
2017-Sep-19 05:00N 39°55' W 015°38'0 0.0 1025.5 21.7
2017-Sep-19 04:00N 39°55' W 015°38'0 0.0 1025.5 21.7
2017-Sep-19 03:00N 39°55' W 015°38'0 0.5 1025.5 21.7
2017-Sep-19 02:00N 39°55' W 015°38'0 0.0 1025.9 21.7
2017-Sep-19 01:00N 39°55' W 015°38'0 0.5 1026.1 21.8
2017-Sep-19 00:00N 39°55' W 015°37'1 0.6 1026.3 21.8
2017-Sep-18 23:00N 39°55' W 015°37'0 0.5 1026.5 21.8
2017-Sep-18 22:00N 39°55' W 015°38'0 0.0 1026.6 21.9
2017-Sep-18 21:00N 39°55' W 015°38'0 0.0 1026.5 22.1
2017-Sep-18 20:00N 39°55' W 015°38'0 0.0 1026.0 22.5
2017-Sep-18 19:00N 39°55' W 015°38'0 0.0 1025.6 22.5
2017-Sep-18 18:00N 39°55' W 015°38'1 0.6 1025.6 22.6
2017-Sep-18 17:00N 39°55' W 015°38'0 0.0 1025.5 22.9
2017-Sep-18 16:00N 39°55' W 015°38'0 0.0 1025.2 23.1
2017-Sep-18 15:00N 39°55' W 015°38'0 0.0 1025.3 22.8
2017-Sep-18 14:00N 39°55' W 015°38'0 0.0 1025.4 22.8
2017-Sep-18 13:00N 39°55' W 015°38'0 0.0 1025.5 22.3
2017-Sep-18 12:00N 39°55' W 015°38'0 0.5 1025.5 22.1
2017-Sep-18 11:00N 39°55' W 015°38'0 0.0 1025.3 21.7
2017-Sep-18 10:00N 39°55' W 015°38'0 0.5 1025.0 21.7
2017-Sep-18 09:00N 39°55' W 015°39'0 0.5 1024.5 21.7
2017-Sep-18 08:00N 39°55' W 015°38'0 0.0 1024.0 21.7
2017-Sep-18 07:00N 39°55' W 015°38'0 0.0 1023.6 21.6
2017-Sep-18 06:00N 39°55' W 015°38'0 0.0 1023.2 21.7
2017-Sep-18 05:00N 39°55' W 015°38'0 0.5 1023.1 21.7
2017-Sep-18 04:00N 39°55' W 015°39'0 0.0 1022.9 21.7
2017-Sep-18 03:00N 39°55' W 015°39'1 0.6 1022.9 21.7
2017-Sep-18 02:00N 39°55' W 015°39'0 0.5 1023.1 21.7
2017-Sep-18 01:00N 39°55' W 015°40'1 0.6 1023.2 21.7
2017-Sep-18 00:00N 39°56' W 015°40'0 0.5 1023.4 21.7
2017-Sep-17 23:00N 39°56' W 015°40'0 0.5 1023.8 21.7
2017-Sep-17 22:00N 39°56' W 015°41'0 0.5 1023.9 21.7
2017-Sep-17 21:00N 39°56' W 015°41'0 0.0 1023.8 21.7
2017-Sep-17 20:00N 39°56' W 015°41'0 0.5 1023.6 21.7
2017-Sep-17 19:00N 39°56' W 015°42'0 0.0 1023.4 21.8
2017-Sep-17 18:00N 39°56' W 015°42'0 0.0 1023.4 21.8
2017-Sep-17 17:00N 39°56' W 015°42'0 0.0 1023.5 21.8
2017-Sep-17 16:00N 39°56' W 015°42'0 0.0 1023.5 21.8
2017-Sep-17 15:00N 39°56' W 015°42'0 0.0 1023.6 21.8
2017-Sep-17 14:00N 39°56' W 015°42'1 0.6 1023.8 21.8
2017-Sep-17 13:00N 39°56' W 015°42'0 0.0 1024.1 21.8
2017-Sep-17 12:00N 39°56' W 015°42'0 0.0 1024.2 21.8
2017-Sep-17 11:00N 39°56' W 015°42'1 0.6 1024.3 21.7
2017-Sep-17 10:00N 39°57' W 015°42'0 0.5 1024.1 21.7
2017-Sep-17 09:00N 39°57' W 015°43'1 0.6 1023.6 21.6
2017-Sep-17 08:00N 39°58' W 015°43'0 0.0 1023.4 21.6
2017-Sep-17 07:00N 39°58' W 015°43'0 0.5 1023.0 21.6
2017-Sep-17 06:00N 39°58' W 015°43'0 0.5 1022.7 21.6
2017-Sep-17 05:00N 39°58' W 015°44'0 0.0 1022.6 21.6
2017-Sep-17 04:00N 39°58' W 015°44'0 0.0 1022.6 21.6
2017-Sep-17 03:00N 39°58' W 015°44'0 0.0 1022.6 21.6
2017-Sep-17 02:00N 39°58' W 015°44'0 0.0 1022.9 21.6
2017-Sep-17 01:00N 39°58' W 015°44'0 0.5 1023.2 21.6
2017-Sep-17 00:00N 39°58' W 015°43'0 0.0 1023.5 21.6
2017-Sep-16 23:00N 39°58' W 015°43'1 0.6 1023.7 21.6
2017-Sep-16 22:00N 39°58' W 015°43'0 0.5 1023.8 21.7
2017-Sep-16 21:00N 39°58' W 015°43'1 0.6 1023.6 21.7
2017-Sep-16 20:00N 39°59' W 015°43'0 0.0 1023.2 21.7
2017-Sep-16 19:00N 39°59' W 015°43'1 0.6 1023.1 21.7
2017-Sep-16 18:00N 39°59' W 015°43'0 0.0 1022.9 21.8
2017-Sep-16 17:00N 39°59' W 015°43'0 0.0 1022.9 21.8
2017-Sep-16 16:00N 39°59' W 015°43'1 0.8 1022.6 21.8
2017-Sep-16 15:00N 40°00' W 015°43'0 0.0 1022.9 21.8
2017-Sep-16 14:00N 40°00' W 015°43'0 0.0 1023.2 21.7
2017-Sep-16 13:00N 40°00' W 015°43'0 0.5 1023.6 21.7
2017-Sep-16 12:00N 40°00' W 015°43'0 0.0 1023.6 21.6
2017-Sep-16 11:00N 40°00' W 015°43'0 0.0 1023.8 21.6
2017-Sep-16 10:00N 40°00' W 015°43'0 0.0 1023.9 21.5
2017-Sep-16 09:00N 40°00' W 015°43'0 0.0 1023.9 21.5
2017-Sep-16 08:00N 40°00' W 015°43'0 0.0 1023.3 21.5
2017-Sep-16 07:00N 40°00' W 015°43'0 0.5 1022.9 21.5
2017-Sep-16 06:00N 40°00' W 015°42'0 0.0 1022.4 21.5
2017-Sep-16 05:00N 40°00' W 015°42'0 0.0 1022.6 21.5
2017-Sep-16 04:00N 40°00' W 015°42'0 0.5 1022.9 21.5
2017-Sep-16 03:00N 40°00' W 015°41'1 0.6 1023.3 21.5
2017-Sep-16 02:00N 40°01' W 015°41'0 0.5 1023.6 21.5
2017-Sep-16 01:00N 40°01' W 015°41'1 0.6 1023.7 21.5
2017-Sep-16 00:00N 40°01' W 015°41'0 0.5 1024.3 21.5
2017-Sep-15 23:00N 40°01' W 015°40'0 0.0 1024.6 21.5
2017-Sep-15 22:00N 40°01' W 015°40'1 0.6 1024.8 21.6
2017-Sep-15 21:00N 40°02' W 015°40'0 0.0 1025.0 21.6
2017-Sep-15 20:00N 40°02' W 015°40'0 0.0 1024.9 21.6
2017-Sep-15 19:00N 40°02' W 015°40'0 0.0 1024.6 21.6
2017-Sep-15 18:00N 40°02' W 015°40'0 0.5 1024.9 21.6
2017-Sep-15 17:00N 40°02' W 015°40'1 0.6 1024.9 21.6
2017-Sep-15 16:00N 40°02' W 015°40'0 0.0 1025.2 21.6
2017-Sep-15 15:00N 40°02' W 015°40'0 0.0 1025.5 21.6
2017-Sep-15 14:00N 40°02' W 015°40'0 0.0 1025.8 21.6
2017-Sep-15 13:00N 40°02' W 015°40'0 0.5 1026.1 21.6
2017-Sep-15 12:00N 40°02' W 015°39'   1026.4 21.6
Track history (hours):
 
Tides and Currents Weather Stations Pressure Air Temp Water Temp Dewpoint Dewpoint Depression Visibility Wind Speed Wind Dir Waves Ship Positions

Drifting buoy 47574

Last reported at 2017-Sep-25 12:00 UTC. Time now 2017-Sep-25 13:37 UTC.
Position N 39°56' W 015°13'.

Barometer 1024.2 mb
Water temperature 21.6 ° C

Date/timePositionNaut miles runAvg speedWind from/ knotsBaromVisibWave heightAir tempDewpointWater temp
2017-Sep-25 12:00N 39°56' W 015°13'0 0.0 1024.2 21.6
2017-Sep-25 11:00N 39°56' W 015°13'0 0.0 1024.6 21.6
2017-Sep-25 10:00N 39°56' W 015°13'0 0.0 1024.7 21.5
2017-Sep-25 09:00N 39°56' W 015°13'0 0.5 1024.5 21.5
2017-Sep-25 08:00N 39°56' W 015°14'1 0.6 1024.1 21.5
2017-Sep-25 07:00N 39°57' W 015°14'0 0.5 1023.7 21.5
2017-Sep-25 06:00N 39°57' W 015°14'0 0.5 1023.2 21.5
2017-Sep-25 05:00N 39°57' W 015°15'1 0.6 1023.0 21.5
2017-Sep-25 04:00N 39°56' W 015°15'0 0.5 1023.0 21.5
2017-Sep-25 03:00N 39°56' W 015°16'1 0.8 1023.0 21.5
2017-Sep-25 02:00N 39°56' W 015°16'1 0.6 1023.3 21.5
2017-Sep-25 01:00N 39°55' W 015°16'0 0.5 1023.5 21.5
2017-Sep-25 00:00N 39°55' W 015°17'0 0.0 1023.6 21.5
2017-Sep-24 23:00N 39°55' W 015°17'0 0.0 1023.8 21.6
2017-Sep-24 22:00N 39°55' W 015°17'1 0.6 1023.8 21.6
2017-Sep-24 21:00N 39°56' W 015°17'0 0.5 1023.4 21.6
2017-Sep-24 20:00N 39°56' W 015°17'0 0.0 1022.8 21.6
2017-Sep-24 19:00N 39°56' W 015°17'0 0.0 1022.3 21.6
2017-Sep-24 18:00N 39°56' W 015°17'0 0.5 1022.0 21.6
2017-Sep-24 17:00N 39°56' W 015°18'0 0.0 1021.9 21.7
2017-Sep-24 16:00N 39°56' W 015°18'1 0.6 1021.9 21.7
2017-Sep-24 15:00N 39°55' W 015°18'0 0.5 1021.9 21.6
2017-Sep-24 14:00N 39°55' W 015°19'0 0.0 1021.7 21.6
2017-Sep-24 13:00N 39°55' W 015°19'0 0.0 1021.6 21.5
2017-Sep-24 12:00N 39°55' W 015°19'1 0.6 1021.5 21.5
2017-Sep-24 11:00N 39°56' W 015°19'0 0.5 1021.3 21.5
2017-Sep-24 10:00N 39°56' W 015°19'0 0.0 1020.9 21.5
2017-Sep-24 09:00N 39°56' W 015°19'1 0.8 1020.3 21.5
2017-Sep-24 08:00N 39°56' W 015°20'0 0.5 1019.7 21.5
2017-Sep-24 07:00N 39°56' W 015°20'0 0.5 1019.3 21.4
2017-Sep-24 06:00N 39°56' W 015°21'0 0.5 1019.0 21.5
2017-Sep-24 05:00N 39°56' W 015°22'1 0.8 1018.5 21.5
2017-Sep-24 04:00N 39°56' W 015°22'1 0.6 1018.6 21.5
2017-Sep-24 03:00N 39°55' W 015°22'0 0.5 1018.7 21.5
2017-Sep-24 02:00N 39°55' W 015°23'0 0.0 1018.9 21.5
2017-Sep-24 01:00N 39°55' W 015°23'1 0.6 1019.2 21.5
2017-Sep-24 00:00N 39°55' W 015°23'0 0.0 1019.4 21.5
2017-Sep-23 23:00N 39°55' W 015°23'0 0.0 1019.6 21.5
2017-Sep-23 22:00N 39°55' W 015°23'0 0.0 1019.4 21.5
2017-Sep-23 21:00N 39°55' W 015°23'1 0.6 1018.9 21.4
2017-Sep-23 20:00N 39°55' W 015°23'0 0.0 1018.5 21.5
2017-Sep-23 19:00N 39°55' W 015°23'0 0.0 1017.7 21.5
2017-Sep-23 18:00N 39°55' W 015°23'0 0.0 1017.2 21.5
2017-Sep-23 17:00N 39°55' W 015°23'0 0.5 1016.8 21.5
2017-Sep-23 16:00N 39°55' W 015°23'0 0.0 1016.7 21.5
2017-Sep-23 15:00N 39°55' W 015°23'0 0.5 1017.0 21.5
2017-Sep-23 14:00N 39°55' W 015°24'0 0.5 1017.2 21.5
2017-Sep-23 13:00N 39°55' W 015°25'0 0.0 1017.5 21.5
2017-Sep-23 12:00N 39°55' W 015°25'1 0.9 1017.9 21.5
2017-Sep-23 11:00N 39°55' W 015°26'1 0.8 1018.1 21.5
2017-Sep-23 10:00N 39°55' W 015°26'0 0.5 1017.8 21.5
2017-Sep-23 09:00N 39°55' W 015°27'0 0.5 1017.6 21.5
2017-Sep-23 08:00N 39°55' W 015°28'1 0.8 1017.6 21.5
2017-Sep-23 07:00N 39°54' W 015°28'0 0.0 1016.9 21.5
2017-Sep-23 06:00N 39°54' W 015°28'1 0.8 1017.0 21.5
2017-Sep-23 05:00N 39°53' W 015°29'0 0.5 1017.3 21.5
2017-Sep-23 04:00N 39°53' W 015°29'0 0.0 1017.8 21.6
2017-Sep-23 03:00N 39°53' W 015°29'1 0.8 1018.2 21.6
2017-Sep-23 02:00N 39°53' W 015°30'0 0.0 1018.7 21.6
2017-Sep-23 01:00N 39°53' W 015°30'0 0.5 1018.8 21.6
2017-Sep-23 00:00N 39°53' W 015°31'0 0.0 1019.5 21.6
2017-Sep-22 23:00N 39°53' W 015°31'0 0.5 1020.5 21.6
2017-Sep-22 22:00N 39°53' W 015°31'0 0.0 1021.2 21.6
2017-Sep-22 21:00N 39°53' W 015°31'0 0.5 1021.4 21.7
2017-Sep-22 20:00N 39°53' W 015°32'0 0.0 1021.5 21.7
2017-Sep-22 19:00N 39°53' W 015°32'0 0.5 1021.2 21.8
2017-Sep-22 18:00N 39°53' W 015°32'0 0.0 1021.3 21.9
2017-Sep-22 17:00N 39°53' W 015°32'1 0.8 1021.6 22.0
2017-Sep-22 16:00N 39°52' W 015°33'0 0.0 1021.9 22.2
2017-Sep-22 15:00N 39°52' W 015°33'0 0.0 1022.6 22.3
2017-Sep-22 14:00N 39°52' W 015°33'0 0.0 1022.9 22.4
2017-Sep-22 13:00N 39°52' W 015°33'0 0.5 1023.4 22.3
2017-Sep-22 12:00N 39°52' W 015°34'0 0.0 1023.9 22.0
2017-Sep-22 11:00N 39°52' W 015°34'0 0.0 1024.3 21.8
2017-Sep-22 10:00N 39°52' W 015°34'0 0.0 1024.6 21.6
2017-Sep-22 09:00N 39°52' W 015°34'1 0.6 1024.3 21.6
2017-Sep-22 08:00N 39°53' W 015°34'0 0.0 1024.0 21.6
2017-Sep-22 07:00N 39°53' W 015°34'0 0.0 1023.8 21.6
2017-Sep-22 06:00N 39°53' W 015°34'0 0.5 1023.9 21.6
2017-Sep-22 05:00N 39°53' W 015°34'0 0.0 1023.7 21.6
2017-Sep-22 04:00N 39°53' W 015°34'1 0.6 1023.8 21.6
2017-Sep-22 03:00N 39°53' W 015°34'0 0.0 1024.4 21.6
2017-Sep-22 02:00N 39°53' W 015°34'0 0.5 1024.8 21.6
2017-Sep-22 01:00N 39°53' W 015°35'0 0.0 1025.1 21.6
2017-Sep-22 00:00N 39°53' W 015°35'1 0.6 1025.4 21.6
2017-Sep-21 23:00N 39°54' W 015°35'0 0.0 1025.5 21.6
2017-Sep-21 22:00N 39°54' W 015°35'0 0.5 1025.5 21.6
2017-Sep-21 21:00N 39°54' W 015°35'0 0.5 1025.7 21.7
2017-Sep-21 20:00N 39°54' W 015°35'0 0.0 1025.1 21.7
2017-Sep-21 19:00N 39°54' W 015°35'1 0.6 1024.8 21.7
2017-Sep-21 18:00N 39°55' W 015°35'0 0.0 1024.5 21.7
2017-Sep-21 17:00N 39°55' W 015°35'0 0.5 1024.3 21.7
2017-Sep-21 16:00N 39°55' W 015°34'1 0.6 1024.2 21.7
2017-Sep-21 15:00N 39°55' W 015°34'0 0.0 1024.0 21.7
2017-Sep-21 14:00N 39°55' W 015°34'1 0.6 1024.0 21.7
2017-Sep-21 13:00N 39°56' W 015°34'0 0.0 1024.4 21.7
2017-Sep-21 12:00N 39°56' W 015°34'0 0.5 1024.4 21.7
2017-Sep-21 11:00N 39°56' W 015°35'1 0.6 1024.4 21.7
2017-Sep-21 10:00N 39°56' W 015°35'0 0.0 1024.2 21.7
2017-Sep-21 09:00N 39°56' W 015°35'0 0.0 1023.7 21.6
2017-Sep-21 08:00N 39°56' W 015°35'0 0.0 1023.1 21.6
2017-Sep-21 07:00N 39°56' W 015°35'0 0.0 1022.4 21.7
2017-Sep-21 06:00N 39°56' W 015°35'0 0.0 1021.6 21.7
2017-Sep-21 05:00N 39°56' W 015°35'0 0.0 1021.0 21.7
2017-Sep-21 04:00N 39°56' W 015°35'1 0.8 1020.8 21.7
2017-Sep-21 03:00N 39°56' W 015°34'1 0.8 1020.9 21.7
2017-Sep-21 02:00N 39°56' W 015°34'0 0.5
2017-Sep-21 01:00N 39°56' W 015°33'0 0.0
2017-Sep-21 00:00N 39°56' W 015°33'1 0.6 1020.8 21.7
2017-Sep-20 23:00N 39°57' W 015°33'1 0.6 1020.6 21.7
2017-Sep-20 22:00N 39°58' W 015°33'0 0.0 1020.4 21.8
2017-Sep-20 21:00N 39°58' W 015°33'0 0.0 1020.0 21.8
2017-Sep-20 20:00N 39°58' W 015°33'1 0.6 1019.5 21.8
2017-Sep-20 19:00N 39°58' W 015°33'0 0.5 1019.4 21.8
2017-Sep-20 18:00N 39°58' W 015°34'0 0.0 1019.6 21.8
2017-Sep-20 17:00N 39°58' W 015°34'0 0.0 1019.6 21.9
2017-Sep-20 16:00N 39°58' W 015°34'0 0.5 1019.7 22.0
2017-Sep-20 15:00N 39°58' W 015°34'0 0.0 1019.9 22.0
2017-Sep-20 14:00N 39°58' W 015°34'0 0.5 1020.3 21.9
2017-Sep-20 13:00N 39°58' W 015°35'1 0.8 1020.9 21.9
2017-Sep-20 12:00N 39°58' W 015°35'0 0.0 1021.4 21.8
2017-Sep-20 11:00N 39°58' W 015°35'0 0.5 1021.9 21.8
2017-Sep-20 10:00N 39°58' W 015°36'0 0.0 1022.1 21.8
2017-Sep-20 09:00N 39°58' W 015°36'1 0.6 1022.2 21.8
2017-Sep-20 08:00N 39°57' W 015°36'0 0.0 1022.2 21.8
2017-Sep-20 07:00N 39°57' W 015°36'1 0.8 1022.1 21.8
2017-Sep-20 06:00N 39°56' W 015°37'0 0.0 1022.0 21.8
2017-Sep-20 05:00N 39°56' W 015°37'0 0.0 1022.0 21.8
2017-Sep-20 04:00N 39°56' W 015°37'1 0.6 1022.4 21.8
2017-Sep-20 03:00N 39°56' W 015°37'0 0.0 1022.6 21.9
2017-Sep-20 02:00N 39°56' W 015°37'0 0.0 1023.2 21.9
2017-Sep-20 01:00N 39°56' W 015°37'0 0.0 1023.7 21.9
2017-Sep-20 00:00N 39°56' W 015°37'1 0.6 1024.1 21.9
2017-Sep-19 23:00N 39°56' W 015°37'0 0.5 1024.8 22.0
2017-Sep-19 22:00N 39°56' W 015°37'0 0.0 1025.1 22.0
2017-Sep-19 21:00N 39°56' W 015°37'0 0.0 1025.3 22.1
2017-Sep-19 20:00N 39°56' W 015°37'0 0.5 1025.1 22.0
2017-Sep-19 19:00N 39°56' W 015°38'1 0.6 1024.8 22.1
2017-Sep-19 18:00N 39°56' W 015°38'0 0.5 1024.6 22.2
2017-Sep-19 17:00N 39°56' W 015°38'0 0.0 1024.7 22.3
2017-Sep-19 16:00N 39°56' W 015°38'1 0.6 1024.8 22.3
2017-Sep-19 15:00N 39°55' W 015°38'0 0.5 1025.1 22.3
2017-Sep-19 14:00N 39°55' W 015°38'0 0.0 1025.5 22.1
2017-Sep-19 13:00N 39°55' W 015°38'0 0.0 1025.8 22.0
2017-Sep-19 12:00N 39°55' W 015°38'0 0.0 1026.2 21.9
2017-Sep-19 11:00N 39°55' W 015°38'0 0.0 1026.6 21.9
2017-Sep-19 10:00N 39°55' W 015°38'0 0.5 1026.9 21.8
2017-Sep-19 09:00N 39°55' W 015°38'0 0.0 1026.4 21.7
2017-Sep-19 08:00N 39°55' W 015°38'0 0.0 1026.3 21.7
2017-Sep-19 07:00N 39°55' W 015°38'0 0.0 1025.9 21.7
2017-Sep-19 06:00N 39°55' W 015°38'1 0.6 1025.7 21.7
2017-Sep-19 05:00N 39°55' W 015°38'0 0.0 1025.5 21.7
2017-Sep-19 04:00N 39°55' W 015°38'0 0.0 1025.5 21.7
2017-Sep-19 03:00N 39°55' W 015°38'0 0.5 1025.5 21.7
2017-Sep-19 02:00N 39°55' W 015°38'0 0.0 1025.9 21.7
2017-Sep-19 01:00N 39°55' W 015°38'0 0.5 1026.1 21.8
2017-Sep-19 00:00N 39°55' W 015°37'1 0.6 1026.3 21.8
2017-Sep-18 23:00N 39°55' W 015°37'0 0.5 1026.5 21.8
2017-Sep-18 22:00N 39°55' W 015°38'0 0.0 1026.6 21.9
2017-Sep-18 21:00N 39°55' W 015°38'0 0.0 1026.5 22.1
2017-Sep-18 20:00N 39°55' W 015°38'0 0.0 1026.0 22.5
2017-Sep-18 19:00N 39°55' W 015°38'0 0.0 1025.6 22.5
2017-Sep-18 18:00N 39°55' W 015°38'1 0.6 1025.6 22.6
2017-Sep-18 17:00N 39°55' W 015°38'0 0.0 1025.5 22.9
2017-Sep-18 16:00N 39°55' W 015°38'0 0.0 1025.2 23.1
2017-Sep-18 15:00N 39°55' W 015°38'0 0.0 1025.3 22.8
2017-Sep-18 14:00N 39°55' W 015°38'0 0.0 1025.4 22.8
2017-Sep-18 13:00N 39°55' W 015°38'0 0.0 1025.5 22.3
2017-Sep-18 12:00N 39°55' W 015°38'0 0.5 1025.5 22.1
2017-Sep-18 11:00N 39°55' W 015°38'0 0.0 1025.3 21.7
2017-Sep-18 10:00N 39°55' W 015°38'0 0.5 1025.0 21.7
2017-Sep-18 09:00N 39°55' W 015°39'0 0.5 1024.5 21.7
2017-Sep-18 08:00N 39°55' W 015°38'0 0.0 1024.0 21.7
2017-Sep-18 07:00N 39°55' W 015°38'0 0.0 1023.6 21.6
2017-Sep-18 06:00N 39°55' W 015°38'0 0.0 1023.2 21.7
2017-Sep-18 05:00N 39°55' W 015°38'0 0.5 1023.1 21.7
2017-Sep-18 04:00N 39°55' W 015°39'0 0.0 1022.9 21.7
2017-Sep-18 03:00N 39°55' W 015°39'1 0.6 1022.9 21.7
2017-Sep-18 02:00N 39°55' W 015°39'0 0.5 1023.1 21.7
2017-Sep-18 01:00N 39°55' W 015°40'1 0.6 1023.2 21.7
2017-Sep-18 00:00N 39°56' W 015°40'0 0.5 1023.4 21.7
2017-Sep-17 23:00N 39°56' W 015°40'0 0.5 1023.8 21.7
2017-Sep-17 22:00N 39°56' W 015°41'0 0.5 1023.9 21.7
2017-Sep-17 21:00N 39°56' W 015°41'0 0.0 1023.8 21.7
2017-Sep-17 20:00N 39°56' W 015°41'0 0.5 1023.6 21.7
2017-Sep-17 19:00N 39°56' W 015°42'0 0.0 1023.4 21.8
2017-Sep-17 18:00N 39°56' W 015°42'0 0.0 1023.4 21.8
2017-Sep-17 17:00N 39°56' W 015°42'0 0.0 1023.5 21.8
2017-Sep-17 16:00N 39°56' W 015°42'0 0.0 1023.5 21.8
2017-Sep-17 15:00N 39°56' W 015°42'0 0.0 1023.6 21.8
2017-Sep-17 14:00N 39°56' W 015°42'1 0.6 1023.8 21.8
2017-Sep-17 13:00N 39°56' W 015°42'0 0.0 1024.1 21.8
2017-Sep-17 12:00N 39°56' W 015°42'0 0.0 1024.2 21.8
2017-Sep-17 11:00N 39°56' W 015°42'1 0.6 1024.3 21.7
2017-Sep-17 10:00N 39°57' W 015°42'0 0.5 1024.1 21.7
2017-Sep-17 09:00N 39°57' W 015°43'1 0.6 1023.6 21.6
2017-Sep-17 08:00N 39°58' W 015°43'0 0.0 1023.4 21.6
2017-Sep-17 07:00N 39°58' W 015°43'0 0.5 1023.0 21.6
2017-Sep-17 06:00N 39°58' W 015°43'0 0.5 1022.7 21.6
2017-Sep-17 05:00N 39°58' W 015°44'0 0.0 1022.6 21.6
2017-Sep-17 04:00N 39°58' W 015°44'0 0.0 1022.6 21.6
2017-Sep-17 03:00N 39°58' W 015°44'0 0.0 1022.6 21.6
2017-Sep-17 02:00N 39°58' W 015°44'0 0.0 1022.9 21.6
2017-Sep-17 01:00N 39°58' W 015°44'0 0.5 1023.2 21.6
2017-Sep-17 00:00N 39°58' W 015°43'0 0.0 1023.5 21.6
2017-Sep-16 23:00N 39°58' W 015°43'1 0.6 1023.7 21.6
2017-Sep-16 22:00N 39°58' W 015°43'0 0.5 1023.8 21.7
2017-Sep-16 21:00N 39°58' W 015°43'1 0.6 1023.6 21.7
2017-Sep-16 20:00N 39°59' W 015°43'0 0.0 1023.2 21.7
2017-Sep-16 19:00N 39°59' W 015°43'1 0.6 1023.1 21.7
2017-Sep-16 18:00N 39°59' W 015°43'0 0.0 1022.9 21.8
2017-Sep-16 17:00N 39°59' W 015°43'0 0.0 1022.9 21.8
2017-Sep-16 16:00N 39°59' W 015°43'1 0.8 1022.6 21.8
2017-Sep-16 15:00N 40°00' W 015°43'0 0.0 1022.9 21.8
2017-Sep-16 14:00N 40°00' W 015°43'0 0.0 1023.2 21.7
2017-Sep-16 13:00N 40°00' W 015°43'0 0.5 1023.6 21.7
2017-Sep-16 12:00N 40°00' W 015°43'0 0.0 1023.6 21.6
2017-Sep-16 11:00N 40°00' W 015°43'0 0.0 1023.8 21.6
2017-Sep-16 10:00N 40°00' W 015°43'0 0.0 1023.9 21.5
2017-Sep-16 09:00N 40°00' W 015°43'0 0.0 1023.9 21.5
2017-Sep-16 08:00N 40°00' W 015°43'0 0.0 1023.3 21.5
2017-Sep-16 07:00N 40°00' W 015°43'0 0.5 1022.9 21.5
2017-Sep-16 06:00N 40°00' W 015°42'0 0.0 1022.4 21.5
2017-Sep-16 05:00N 40°00' W 015°42'0 0.0 1022.6 21.5
2017-Sep-16 04:00N 40°00' W 015°42'0 0.5 1022.9 21.5
2017-Sep-16 03:00N 40°00' W 015°41'1 0.6 1023.3 21.5
2017-Sep-16 02:00N 40°01' W 015°41'0 0.5 1023.6 21.5
2017-Sep-16 01:00N 40°01' W 015°41'1 0.6 1023.7 21.5
2017-Sep-16 00:00N 40°01' W 015°41'0 0.5 1024.3 21.5
2017-Sep-15 23:00N 40°01' W 015°40'0 0.0 1024.6 21.5
2017-Sep-15 22:00N 40°01' W 015°40'1 0.6 1024.8 21.6
2017-Sep-15 21:00N 40°02' W 015°40'0 0.0 1025.0 21.6
2017-Sep-15 20:00N 40°02' W 015°40'0 0.0 1024.9 21.6
2017-Sep-15 19:00N 40°02' W 015°40'0 0.0 1024.6 21.6
2017-Sep-15 18:00N 40°02' W 015°40'0 0.5 1024.9 21.6
2017-Sep-15 17:00N 40°02' W 015°40'1 0.6 1024.9 21.6
2017-Sep-15 16:00N 40°02' W 015°40'0 0.0 1025.2 21.6
2017-Sep-15 15:00N 40°02' W 015°40'0 0.0 1025.5 21.6
2017-Sep-15 14:00N 40°02' W 015°40'0 0.0 1025.8 21.6
2017-Sep-15 13:00N 40°02' W 015°40'0 0.5 1026.1 21.6
2017-Sep-15 12:00N 40°02' W 015°39'   1026.4 21.6

Dump ship's entire track history